Time;durP1;ratioP1;P1;durP2;ratioP2;P2;SDS_P1;SDS_P2;PMS_P1;PMS_P2;Temp;Humidity;BMP_temperature;BMP_pressure;BME280_temperature;BME280_humidity;BME280_pressure;Samples;Min_cycle;Max_cycle;Signal;HPM_P1;HPM_P2
2024/01/24 00:00:17;;;;;;;2.35;1.20;;;11.90;99.90;;;;;;5092465;28;20256;-52
2024/01/24 00:02:44;;;;;;;5.15;1.45;;;11.90;99.90;;;;;;5092676;28;20168;-51
2024/01/24 00:05:10;;;;;;;6.45;1.70;;;12.00;99.90;;;;;;5092692;28;20209;-51
2024/01/24 00:07:36;;;;;;;1.88;1.48;;;11.90;99.90;;;;;;5093287;28;20223;-52
2024/01/24 00:10:02;;;;;;;4.63;2.10;;;12.00;99.90;;;;;;5092423;28;20197;-52
2024/01/24 00:12:28;;;;;;;6.88;1.92;;;11.90;99.90;;;;;;5092280;28;20700;-51
2024/01/24 00:14:54;;;;;;;2.10;1.42;;;12.00;99.90;;;;;;5092240;28;20244;-50
2024/01/24 00:17:19;;;;;;;5.15;1.63;;;11.90;99.90;;;;;;5092224;28;20165;-52
2024/01/24 00:19:45;;;;;;;4.07;1.70;;;11.90;99.90;;;;;;5092234;28;20200;-53
2024/01/24 00:22:11;;;;;;;4.32;1.63;;;11.90;99.90;;;;;;5092124;28;20161;-52
2024/01/24 00:24:37;;;;;;;2.38;2.00;;;11.90;99.90;;;;;;5092413;28;20568;-52
2024/01/24 00:27:03;;;;;;;4.55;1.58;;;11.90;99.90;;;;;;5092030;28;20245;-52
2024/01/24 00:29:28;;;;;;;4.95;1.48;;;12.00;99.90;;;;;;5092003;28;20578;-50
2024/01/24 00:31:55;;;;;;;3.55;1.75;;;11.90;99.90;;;;;;5091955;28;20198;-50
2024/01/24 00:34:21;;;;;;;1.95;1.33;;;12.10;99.90;;;;;;5092218;28;20219;-52
2024/01/24 00:36:49;;;;;;;3.33;1.77;;;12.10;99.90;;;;;;5091842;28;20172;-50
2024/01/24 00:39:14;;;;;;;3.58;2.40;;;12.10;99.90;;;;;;5092087;28;20602;-54
2024/01/24 00:41:41;;;;;;;6.03;1.92;;;12.10;99.90;;;;;;5091747;28;20196;-53
2024/01/24 00:44:07;;;;;;;3.25;1.55;;;12.10;99.90;;;;;;5092049;28;20698;-51
2024/01/24 00:46:33;;;;;;;3.60;1.33;;;12.20;99.90;;;;;;5091655;28;20169;-50
2024/01/24 00:48:58;;;;;;;5.10;2.15;;;12.20;99.90;;;;;;5090393;28;20559;-50
2024/01/24 00:51:24;;;;;;;6.15;1.65;;;12.20;99.90;;;;;;5091696;28;20165;-50
2024/01/24 00:53:53;;;;;;;1.95;1.52;;;12.20;99.90;;;;;;5091643;28;20219;-50
2024/01/24 00:56:20;;;;;;;2.75;1.85;;;12.30;99.90;;;;;;5091391;28;20236;-51
2024/01/24 00:58:45;;;;;;;3.13;1.17;;;12.30;99.90;;;;;;5091556;28;20629;-51
2024/01/24 01:01:11;;;;;;;5.80;1.98;;;12.40;99.90;;;;;;5091504;28;20179;-51
2024/01/24 01:03:38;;;;;;;8.77;1.77;;;12.30;99.90;;;;;;5091792;28;20197;-52
2024/01/24 01:06:04;;;;;;;4.95;1.67;;;12.30;99.90;;;;;;5091883;28;20197;-51
2024/01/24 01:08:30;;;;;;;6.63;1.80;;;12.40;99.90;;;;;;5091392;28;20711;-52
2024/01/24 01:10:55;;;;;;;9.70;2.38;;;12.40;99.90;;;;;;5091163;28;20252;-51
2024/01/24 01:13:21;;;;;;;5.18;1.77;;;12.40;99.90;;;;;;5090755;28;20165;-51
2024/01/24 01:15:47;;;;;;;4.13;1.90;;;12.40;99.90;;;;;;5091291;28;20177;-51
2024/01/24 01:18:12;;;;;;;3.67;1.63;;;12.40;99.90;;;;;;5091318;28;20196;-56
2024/01/24 01:20:38;;;;;;;5.35;1.92;;;12.40;99.90;;;;;;5091286;28;20169;-52
2024/01/24 01:23:04;;;;;;;7.30;1.85;;;12.40;99.90;;;;;;5091695;28;20165;-56
2024/01/24 01:25:29;;;;;;;6.20;1.70;;;12.40;99.90;;;;;;5091238;28;20222;-56
2024/01/24 01:27:55;;;;;;;4.82;1.83;;;12.50;99.90;;;;;;5091160;28;20252;-56
2024/01/24 01:30:21;;;;;;;3.50;1.40;;;12.50;99.90;;;;;;5091153;28;20215;-56
2024/01/24 01:32:46;;;;;;;8.20;2.97;;;12.60;99.90;;;;;;5091515;28;20281;-52
2024/01/24 01:35:12;;;;;;;2.08;1.35;;;12.50;99.90;;;;;;5091178;28;20638;-52
2024/01/24 01:37:38;;;;;;;1.80;1.48;;;12.60;99.90;;;;;;5091638;28;20502;-51
2024/01/24 01:40:06;;;;;;;4.15;1.88;;;12.60;99.90;;;;;;5091823;28;20173;-53
2024/01/24 01:42:32;;;;;;;4.80;1.80;;;12.70;99.90;;;;;;5091074;28;20158;-51
2024/01/24 01:44:58;;;;;;;3.83;2.30;;;12.70;99.90;;;;;;5091315;28;20212;-51
2024/01/24 01:47:24;;;;;;;2.00;1.23;;;12.80;99.90;;;;;;5091025;28;20625;-53
2024/01/24 01:49:49;;;;;;;3.30;1.45;;;12.80;99.90;;;;;;5090942;28;20657;-52
2024/01/24 01:52:16;;;;;;;1.80;1.38;;;12.90;99.90;;;;;;5091012;28;20160;-52
2024/01/24 01:54:42;;;;;;;1.88;1.20;;;12.90;99.90;;;;;;5090948;28;20568;-51
2024/01/24 01:57:11;;;;;;;3.42;1.50;;;12.90;99.90;;;;;;5090838;28;20574;-54
2024/01/24 01:59:39;;;;;;;1.65;1.05;;;12.90;99.90;;;;;;5091652;28;20180;-52
2024/01/24 02:02:06;;;;;;;3.72;1.50;;;12.80;99.90;;;;;;5091416;28;20172;-52
2024/01/24 02:04:32;;;;;;;1.05;1.02;;;12.90;99.90;;;;;;5090767;28;20227;-52
2024/01/24 02:06:57;;;;;;;1.33;1.23;;;13.00;99.90;;;;;;5090904;28;20647;-55
2024/01/24 02:09:23;;;;;;;3.05;0.90;;;13.00;99.90;;;;;;5090869;28;20196;-50
2024/01/24 02:11:49;;;;;;;4.80;1.52;;;13.10;99.90;;;;;;5090768;28;20170;-53
2024/01/24 02:14:14;;;;;;;3.55;1.38;;;13.10;99.90;;;;;;5090771;28;20166;-55
2024/01/24 02:16:40;;;;;;;2.58;0.98;;;13.10;99.90;;;;;;5090740;28;20170;-54
2024/01/24 02:19:06;;;;;;;4.18;1.33;;;13.10;99.90;;;;;;5091237;28;20528;-56
2024/01/24 02:21:32;;;;;;;1.15;0.98;;;13.20;99.90;;;;;;5090865;28;20176;-54
2024/01/24 02:23:59;;;;;;;1.90;1.33;;;13.10;99.90;;;;;;5091683;28;20225;-53
2024/01/24 02:26:25;;;;;;;0.70;0.70;;;13.10;99.90;;;;;;5094398;28;20252;-56
2024/01/24 02:28:51;;;;;;;1.70;1.00;;;13.40;99.90;;;;;;5094353;28;20185;-52
2024/01/24 02:31:16;;;;;;;1.10;0.93;;;13.30;99.90;;;;;;5094262;28;20532;-52
2024/01/24 02:33:42;;;;;;;1.85;1.13;;;13.30;99.90;;;;;;5094307;28;20219;-51
2024/01/24 02:36:09;;;;;;;1.30;1.00;;;13.30;99.90;;;;;;5094647;28;20734;-52
2024/01/24 02:38:35;;;;;;;1.65;1.00;;;13.40;99.90;;;;;;5095001;28;20200;-59
2024/01/24 02:41:01;;;;;;;1.58;0.88;;;13.30;99.90;;;;;;5094094;28;20192;-58
2024/01/24 02:43:26;;;;;;;3.58;1.00;;;13.50;99.90;;;;;;5094228;28;20201;-58
2024/01/24 02:45:52;;;;;;;0.57;0.57;;;13.40;99.90;;;;;;5093972;28;20566;-60
2024/01/24 02:48:18;;;;;;;1.55;1.00;;;13.30;99.90;;;;;;5093938;28;20240;-59
2024/01/24 02:50:43;;;;;;;1.33;1.23;;;13.30;99.90;;;;;;5093925;28;20201;-58
2024/01/24 02:53:09;;;;;;;1.42;1.23;;;13.40;99.90;;;;;;5093888;28;20172;-58
2024/01/24 02:55:34;;;;;;;1.05;0.95;;;13.30;99.90;;;;;;5094281;28;20702;-58
2024/01/24 02:58:00;;;;;;;1.00;0.68;;;13.30;99.90;;;;;;5093710;28;20585;-57
2024/01/24 03:00:27;;;;;;;1.42;0.90;;;13.40;99.90;;;;;;5093774;28;20538;-58
2024/01/24 03:02:53;;;;;;;0.68;0.68;;;13.30;99.90;;;;;;5094006;28;20176;-57
2024/01/24 03:05:18;;;;;;;0.88;0.77;;;13.40;99.90;;;;;;5093817;28;20201;-58
2024/01/24 03:07:44;;;;;;;0.98;0.88;;;13.40;99.90;;;;;;5093612;28;20717;-55
2024/01/24 03:10:10;;;;;;;0.88;0.88;;;13.20;99.90;;;;;;5093625;28;20537;-57
2024/01/24 03:12:35;;;;;;;0.88;0.80;;;13.20;99.90;;;;;;5094406;28;20636;-58
2024/01/24 03:15:01;;;;;;;2.53;0.77;;;13.20;99.90;;;;;;5093722;28;20172;-53
2024/01/24 03:17:27;;;;;;;1.55;0.95;;;13.20;99.90;;;;;;5093436;28;20165;-58
2024/01/24 03:19:52;;;;;;;1.83;1.00;;;13.10;99.90;;;;;;5093381;28;20641;-58
2024/01/24 03:22:18;;;;;;;0.90;0.90;;;13.20;99.90;;;;;;5093297;28;20169;-58
2024/01/24 03:24:44;;;;;;;0.52;0.52;;;13.20;99.90;;;;;;5093171;28;20212;-58
2024/01/24 03:27:09;;;;;;;0.60;0.60;;;13.10;99.90;;;;;;5093190;28;20742;-58
2024/01/24 03:29:35;;;;;;;0.73;0.68;;;13.20;99.90;;;;;;5093641;28;20165;-56
2024/01/24 03:32:01;;;;;;;0.73;0.55;;;13.20;99.90;;;;;;5093094;28;20210;-57
2024/01/24 03:34:30;;;;;;;0.52;0.50;;;13.20;99.90;;;;;;5093331;28;20169;-58
2024/01/24 03:36:55;;;;;;;1.02;0.70;;;13.20;99.90;;;;;;5092478;28;20168;-58
2024/01/24 03:39:21;;;;;;;0.70;0.70;;;13.20;99.90;;;;;;5093007;28;20161;-56
2024/01/24 03:41:47;;;;;;;0.70;0.70;;;13.10;99.90;;;;;;5093192;28;20179;-58
2024/01/24 03:44:12;;;;;;;0.57;0.57;;;13.10;99.90;;;;;;5092828;28;20743;-58
2024/01/24 03:46:38;;;;;;;1.10;0.68;;;13.10;99.90;;;;;;5092748;28;20196;-57
2024/01/24 03:49:04;;;;;;;0.65;0.30;;;13.10;99.90;;;;;;5093290;28;20173;-56
2024/01/24 03:51:30;;;;;;;0.38;0.30;;;13.10;99.90;;;;;;5092729;28;20168;-52
2024/01/24 03:53:56;;;;;;;1.02;0.47;;;13.10;99.90;;;;;;5092645;28;20198;-56
2024/01/24 03:56:22;;;;;;;2.47;0.65;;;13.10;99.90;;;;;;5092512;28;20209;-58
2024/01/24 03:58:47;;;;;;;0.75;0.50;;;13.10;99.90;;;;;;5092477;28;20172;-59
2024/01/24 04:01:13;;;;;;;3.60;0.57;;;13.20;99.90;;;;;;5092091;28;20166;-57
2024/01/24 04:03:39;;;;;;;0.25;0.25;;;13.20;99.90;;;;;;5092675;28;20614;-56
2024/01/24 04:06:04;;;;;;;0.40;0.40;;;13.20;99.90;;;;;;5092891;28;20625;-58
2024/01/24 04:08:30;;;;;;;0.10;0.10;;;13.20;99.90;;;;;;5092637;28;20178;-58
2024/01/24 04:10:55;;;;;;;0.38;0.38;;;13.20;99.90;;;;;;5092343;28;20172;-55
2024/01/24 04:13:21;;;;;;;0.45;0.25;;;13.20;99.90;;;;;;5092218;28;20169;-59
2024/01/24 04:15:47;;;;;;;0.20;0.20;;;13.20;99.90;;;;;;5092265;28;20173;-59
2024/01/24 04:18:12;;;;;;;0.70;0.45;;;13.20;99.90;;;;;;5092253;28;20165;-58
2024/01/24 04:20:38;;;;;;;0.20;0.20;;;13.10;99.90;;;;;;5092230;28;20168;-55
2024/01/24 04:23:03;;;;;;;0.77;0.40;;;13.20;99.90;;;;;;5092536;28;20166;-59
2024/01/24 04:25:29;;;;;;;0.28;0.28;;;13.10;99.90;;;;;;5092083;28;20169;-59
2024/01/24 04:27:55;;;;;;;0.50;0.40;;;13.10;99.90;;;;;;5092020;28;20164;-58
2024/01/24 04:30:21;;;;;;;0.55;0.20;;;13.10;99.90;;;;;;5092049;28;20165;-51
2024/01/24 04:32:46;;;;;;;0.40;0.40;;;13.10;99.90;;;;;;5091966;28;20169;-51
2024/01/24 04:35:12;;;;;;;0.47;0.20;;;13.10;99.90;;;;;;5091889;28;20591;-51
2024/01/24 04:37:38;;;;;;;0.68;0.28;;;13.10;99.90;;;;;;5091847;28;20512;-51
2024/01/24 04:40:04;;;;;;;0.28;0.28;;;13.10;99.90;;;;;;5092489;28;20161;-51
2024/01/24 04:42:30;;;;;;;0.20;0.20;;;13.10;99.90;;;;;;5091832;28;20222;-51
2024/01/24 04:44:56;;;;;;;0.47;0.47;;;13.00;99.90;;;;;;5091662;28;20205;-51
2024/01/24 04:47:21;;;;;;;0.15;0.15;;;13.10;99.90;;;;;;5090957;28;20171;-54
2024/01/24 04:49:47;;;;;;;1.17;0.40;;;13.00;99.90;;;;;;5091650;28;20264;-59
2024/01/24 04:52:13;;;;;;;0.57;0.57;;;13.00;99.90;;;;;;5091617;28;20245;-58
2024/01/24 04:54:41;;;;;;;1.55;0.40;;;12.80;99.90;;;;;;5091775;28;20173;-58
2024/01/24 04:57:07;;;;;;;0.47;0.43;;;12.80;99.90;;;;;;5091986;28;20204;-58
2024/01/24 04:59:33;;;;;;;0.25;0.25;;;12.80;99.90;;;;;;5092129;28;20176;-58
2024/01/24 05:01:58;;;;;;;0.22;0.22;;;12.70;99.90;;;;;;5091821;28;20172;-59
2024/01/24 05:04:24;;;;;;;0.20;0.20;;;12.70;99.90;;;;;;5091435;28;20209;-53
2024/01/24 05:06:50;;;;;;;0.50;0.50;;;12.70;99.90;;;;;;5091490;28;20244;-59
2024/01/24 05:09:16;;;;;;;0.15;0.15;;;12.70;99.90;;;;;;5091732;28;20606;-49
2024/01/24 05:11:42;;;;;;;3.60;0.55;;;12.70;99.90;;;;;;5091466;28;20193;-50
2024/01/24 05:14:08;;;;;;;1.00;0.60;;;12.60;99.90;;;;;;5091307;28;20261;-49
2024/01/24 05:16:33;;;;;;;0.40;0.40;;;12.60;99.90;;;;;;5090420;28;20256;-53
2024/01/24 05:18:59;;;;;;;0.47;0.30;;;12.60;99.90;;;;;;5091299;28;20165;-52
2024/01/24 05:21:24;;;;;;;1.38;0.40;;;12.60;99.90;;;;;;5091288;28;20579;-49
2024/01/24 05:23:51;;;;;;;2.08;0.73;;;12.50;99.90;;;;;;5090890;28;20254;-60
2024/01/24 05:26:17;;;;;;;0.40;0.40;;;12.50;99.90;;;;;;5091266;28;20168;-56
2024/01/24 05:28:42;;;;;;;0.28;0.22;;;12.50;99.90;;;;;;5091182;28;20170;-56
2024/01/24 05:31:08;;;;;;;1.17;0.77;;;12.60;99.90;;;;;;5091128;28;20278;-54
2024/01/24 05:33:34;;;;;;;1.67;0.43;;;12.60;99.90;;;;;;5091710;28;20645;-55
2024/01/24 05:36:00;;;;;;;1.17;1.10;;;12.60;99.90;;;;;;5091119;28;20256;-58
2024/01/24 05:38:25;;;;;;;0.60;0.47;;;12.60;99.90;;;;;;5091203;28;20625;-51
2024/01/24 05:40:51;;;;;;;2.85;0.85;;;12.60;99.90;;;;;;5091013;28;20177;-58
2024/01/24 05:43:17;;;;;;;2.67;1.35;;;12.60;99.90;;;;;;5091225;28;20161;-51
2024/01/24 05:45:42;;;;;;;7.88;1.40;;;12.50;99.90;;;;;;5091379;28;20169;-57
2024/01/24 05:48:08;;;;;;;2.70;1.52;;;12.50;99.90;;;;;;5091004;28;20184;-53
2024/01/24 05:50:33;;;;;;;7.28;1.60;;;12.40;99.90;;;;;;5091531;28;20538;-57
2024/01/24 05:52:59;;;;;;;8.02;1.67;;;12.40;99.90;;;;;;5090961;28;20168;-55
2024/01/24 05:55:24;;;;;;;5.05;1.40;;;12.40;99.90;;;;;;5091203;28;20177;-58
2024/01/24 05:57:50;;;;;;;7.72;2.03;;;12.40;99.90;;;;;;5090759;28;20213;-56
2024/01/24 06:00:16;;;;;;;8.38;2.20;;;12.30;99.90;;;;;;5094411;28;20173;-51
2024/01/24 06:02:45;;;;;;;10.73;2.55;;;12.30;99.90;;;;;;5095103;28;20169;-50
2024/01/24 06:05:11;;;;;;;13.43;2.60;;;12.20;99.90;;;;;;5094705;28;20227;-50
2024/01/24 06:07:37;;;;;;;9.48;2.25;;;12.20;99.90;;;;;;5095223;28;20524;-50
2024/01/24 06:10:03;;;;;;;5.28;1.60;;;12.10;99.90;;;;;;5095033;28;20165;-50
2024/01/24 06:12:28;;;;;;;4.22;2.03;;;12.10;99.90;;;;;;5094506;28;20165;-50
2024/01/24 06:14:56;;;;;;;4.93;1.48;;;12.10;99.90;;;;;;5094528;28;20252;-50
2024/01/24 06:17:22;;;;;;;11.40;2.65;;;12.10;99.90;;;;;;5094435;28;20166;-59
2024/01/24 06:19:50;;;;;;;11.68;2.55;;;12.10;99.90;;;;;;5094499;28;20189;-59
2024/01/24 06:22:16;;;;;;;7.68;2.53;;;12.10;99.90;;;;;;5094670;28;20169;-57
2024/01/24 06:24:41;;;;;;;15.45;2.40;;;12.20;99.90;;;;;;5094306;28;20208;-59
2024/01/24 06:27:08;;;;;;;10.55;2.85;;;12.20;99.90;;;;;;5094821;28;20518;-59
2024/01/24 06:29:34;;;;;;;8.02;2.15;;;12.10;99.90;;;;;;5094900;28;20180;-59
2024/01/24 06:32:00;;;;;;;11.50;2.10;;;12.20;99.90;;;;;;5094207;28;20169;-61
2024/01/24 06:34:26;;;;;;;12.77;2.22;;;12.20;99.90;;;;;;5092952;28;20586;-59
2024/01/24 06:36:52;;;;;;;15.90;2.50;;;12.20;99.90;;;;;;5094256;28;20153;-54
2024/01/24 06:39:17;;;;;;;6.88;2.03;;;12.20;99.90;;;;;;5094198;28;20176;-59
2024/01/24 06:41:44;;;;;;;8.82;2.20;;;12.10;99.90;;;;;;5094126;28;20157;-55
2024/01/24 06:44:09;;;;;;;11.32;2.40;;;12.10;99.90;;;;;;5093869;28;20228;-53
2024/01/24 06:46:44;;;;;;;11.13;2.40;;;12.10;99.90;;;;;;5094672;28;20196;-57
2024/01/24 06:49:10;;;;;;;10.93;2.60;;;12.10;99.90;;;;;;5094136;28;20498;-57
2024/01/24 06:51:39;;;;;;;12.00;3.70;;;12.00;99.90;;;;;;5094492;28;20175;-59
2024/01/24 06:54:05;;;;;;;8.93;2.22;;;12.00;99.90;;;;;;5094495;28;20183;-59
2024/01/24 06:56:31;;;;;;;8.13;2.58;;;11.90;99.90;;;;;;5093604;28;20292;-59
2024/01/24 06:58:57;;;;;;;14.75;2.70;;;11.90;99.90;;;;;;5093804;28;20209;-58
2024/01/24 07:01:22;;;;;;;15.10;3.30;;;11.90;99.90;;;;;;5093724;28;20165;-58
2024/01/24 07:03:48;;;;;;;17.00;3.67;;;11.80;99.90;;;;;;5093694;28;20678;-59
2024/01/24 07:06:14;;;;;;;21.60;3.53;;;11.80;99.90;;;;;;5093638;28;20185;-59
2024/01/24 07:08:40;;;;;;;15.18;3.67;;;11.80;99.90;;;;;;5093499;28;20169;-59
2024/01/24 07:11:06;;;;;;;18.38;3.10;;;11.70;99.90;;;;;;5093063;28;20207;-59
2024/01/24 07:13:32;;;;;;;8.45;2.67;;;11.70;99.90;;;;;;5093784;28;20238;-56
2024/01/24 07:16:00;;;;;;;19.17;4.18;;;11.70;99.90;;;;;;5093673;28;20639;-50
2024/01/24 07:18:26;;;;;;;18.67;3.30;;;11.70;99.90;;;;;;5093385;28;20157;-55
2024/01/24 07:20:51;;;;;;;15.32;3.10;;;11.70;99.90;;;;;;5093292;28;20698;-57
2024/01/24 07:23:17;;;;;;;15.05;3.97;;;11.70;99.90;;;;;;5092357;28;20169;-56
2024/01/24 07:25:43;;;;;;;22.63;4.20;;;11.70;99.90;;;;;;5093304;28;20173;-56
2024/01/24 07:28:08;;;;;;;17.30;4.68;;;11.60;99.90;;;;;;5093242;28;20161;-58
2024/01/24 07:30:34;;;;;;;12.63;2.83;;;11.60;99.90;;;;;;5093609;28;20170;-56
2024/01/24 07:32:59;;;;;;;16.85;2.88;;;11.60;99.90;;;;;;5091878;28;20231;-56
2024/01/24 07:35:25;;;;;;;11.32;3.00;;;11.70;99.90;;;;;;5092961;28;20161;-58
2024/01/24 07:37:51;;;;;;;19.10;3.78;;;11.60;99.90;;;;;;5093008;28;20245;-58
2024/01/24 07:40:16;;;;;;;21.88;4.15;;;11.60;99.90;;;;;;5092961;28;20201;-56
2024/01/24 07:42:42;;;;;;;15.80;4.32;;;11.60;99.90;;;;;;5092909;28;20532;-54
2024/01/24 07:45:11;;;;;;;17.85;4.03;;;11.50;99.90;;;;;;5092837;28;20208;-58
2024/01/24 07:47:37;;;;;;;20.33;3.72;;;11.50;99.90;;;;;;5093317;28;20283;-56
2024/01/24 07:50:03;;;;;;;11.82;3.13;;;11.50;99.90;;;;;;5093375;28;20197;-58
2024/01/24 07:52:28;;;;;;;20.90;3.70;;;11.60;99.90;;;;;;5092650;28;20169;-54
2024/01/24 07:54:54;;;;;;;24.95;5.10;;;11.60;99.90;;;;;;5092980;28;20172;-59
2024/01/24 07:57:19;;;;;;;11.35;3.20;;;11.60;99.90;;;;;;5092504;28;20668;-56
2024/01/24 07:59:45;;;;;;;16.38;3.42;;;11.60;99.90;;;;;;5092503;28;20236;-57
2024/01/24 08:02:12;;;;;;;17.38;3.17;;;11.60;99.90;;;;;;5092632;28;20176;-54
2024/01/24 08:04:38;;;;;;;18.23;4.57;;;11.60;99.90;;;;;;5092438;28;20201;-58
2024/01/24 08:07:04;;;;;;;23.83;5.13;;;11.60;99.90;;;;;;5092977;28;20161;-54
2024/01/24 08:09:29;;;;;;;15.52;3.45;;;11.60;99.90;;;;;;5092629;28;20256;-57
2024/01/24 08:11:55;;;;;;;14.45;2.95;;;11.60;99.90;;;;;;5092326;28;20573;-58
2024/01/24 08:14:21;;;;;;;28.38;4.72;;;11.60;99.90;;;;;;5092296;28;20169;-59
2024/01/24 08:17:06;;;;;;;22.30;5.28;;;11.50;99.90;;;;;;5092281;28;20537;-55
2024/01/24 08:19:32;;;;;;;18.88;4.00;;;11.40;99.90;;;;;;5092134;28;20210;-58
2024/01/24 08:21:58;;;;;;;15.93;3.58;;;11.40;99.90;;;;;;5092055;28;20161;-52
2024/01/24 08:24:24;;;;;;;13.73;3.78;;;11.50;99.90;;;;;;5092306;28;20559;-54
2024/01/24 08:26:50;;;;;;;18.27;4.80;;;11.50;99.90;;;;;;5092044;28;20162;-59
2024/01/24 08:29:17;;;;;;;21.65;3.75;;;11.50;99.90;;;;;;5092344;28;20176;-57
2024/01/24 08:31:43;;;;;;;15.00;3.67;;;11.40;99.90;;;;;;5092271;28;20179;-55
2024/01/24 08:34:08;;;;;;;23.75;4.10;;;11.50;99.90;;;;;;5091909;28;20659;-53
2024/01/24 08:36:34;;;;;;;18.08;4.18;;;11.30;99.90;;;;;;5092624;28;20173;-57
2024/01/24 08:39:00;;;;;;;26.33;4.45;;;11.30;99.90;;;;;;5091917;28;20203;-51
2024/01/24 08:41:25;;;;;;;13.73;3.38;;;11.20;99.90;;;;;;5090553;28;20636;-54
2024/01/24 08:43:52;;;;;;;15.18;3.47;;;11.20;99.90;;;;;;5091741;28;20292;-53
2024/01/24 08:46:18;;;;;;;27.58;5.68;;;11.20;99.90;;;;;;5092054;28;20178;-56
2024/01/24 08:48:43;;;;;;;27.23;4.95;;;11.20;99.90;;;;;;5091570;28;20215;-54
2024/01/24 08:51:09;;;;;;;24.55;5.97;;;11.20;99.90;;;;;;5091706;28;20290;-54
2024/01/24 08:53:37;;;;;;;20.55;4.45;;;11.20;99.90;;;;;;5092066;28;20203;-52
2024/01/24 08:56:03;;;;;;;24.05;5.07;;;11.20;99.90;;;;;;5092003;28;20169;-54
2024/01/24 08:58:28;;;;;;;24.67;4.90;;;11.20;99.90;;;;;;5091591;28;20540;-52
2024/01/24 09:00:54;;;;;;;21.23;4.82;;;11.20;99.90;;;;;;5091498;28;20169;-54
2024/01/24 09:03:20;;;;;;;27.23;4.82;;;11.20;99.90;;;;;;5091381;28;20167;-55
2024/01/24 09:05:45;;;;;;;16.35;4.20;;;11.20;99.90;;;;;;5091512;28;20257;-52
2024/01/24 09:08:11;;;;;;;32.97;6.35;;;11.30;99.90;;;;;;5091456;28;20570;-53
2024/01/24 09:10:36;;;;;;;24.05;4.85;;;11.30;99.90;;;;;;5091882;28;20693;-50
2024/01/24 09:13:02;;;;;;;18.75;3.92;;;11.30;99.90;;;;;;5091876;28;20643;-52
2024/01/24 09:15:27;;;;;;;28.40;6.10;;;11.30;99.90;;;;;;5091303;28;20158;-54
2024/01/24 09:17:53;;;;;;;26.52;6.07;;;11.40;99.90;;;;;;5091314;28;20173;-56
2024/01/24 09:20:18;;;;;;;22.48;5.30;;;11.40;99.90;;;;;;5091312;28;20172;-56
2024/01/24 09:22:45;;;;;;;25.23;5.78;;;11.40;99.90;;;;;;5091199;28;20252;-52
2024/01/24 09:25:10;;;;;;;28.95;5.20;;;11.40;99.90;;;;;;5091450;28;20288;-54
2024/01/24 09:27:36;;;;;;;33.30;5.28;;;11.40;99.90;;;;;;5091978;28;20196;-52
2024/01/24 09:30:03;;;;;;;25.90;5.75;;;12.20;99.90;;;;;;5091621;28;20180;-54
2024/01/24 09:32:29;;;;;;;24.95;5.50;;;11.40;99.90;;;;;;5091111;28;20153;-52
2024/01/24 09:34:54;;;;;;;29.52;5.05;;;11.40;99.90;;;;;;5093997;28;20238;-53
2024/01/24 09:37:20;;;;;;;20.00;3.92;;;11.40;99.90;;;;;;5095458;28;20173;-55
2024/01/24 09:39:48;;;;;;;38.83;6.20;;;11.40;99.90;;;;;;5095266;28;20705;-51
2024/01/24 09:42:22;;;;;;;29.88;5.80;;;11.30;99.90;;;;;;5095177;28;20166;-53
2024/01/24 09:44:49;;;;;;;17.33;3.47;;;11.30;99.90;;;;;;5095059;28;20211;-51
2024/01/24 09:47:16;;;;;;;30.30;6.28;;;11.30;99.90;;;;;;5095407;28;20176;-56
2024/01/24 09:49:43;;;;;;;22.73;5.15;;;11.40;99.90;;;;;;5095282;28;20640;-51
2024/01/24 09:52:12;;;;;;;32.83;6.72;;;11.50;99.90;;;;;;5095172;28;20188;-51
2024/01/24 09:54:38;;;;;;;23.67;5.18;;;11.50;99.90;;;;;;5095136;28;20173;-49
2024/01/24 09:57:06;;;;;;;23.77;4.55;;;11.50;99.90;;;;;;5095372;28;20217;-49
2024/01/24 09:59:32;;;;;;;14.05;3.90;;;12.10;99.90;;;;;;5095537;28;20161;-51
2024/01/24 10:01:58;;;;;;;24.40;4.90;;;11.50;99.90;;;;;;5094993;28;20288;-57
2024/01/24 10:04:24;;;;;;;25.88;5.07;;;11.50;99.90;;;;;;5094775;28;20213;-59
2024/01/24 10:06:52;;;;;;;23.20;4.88;;;11.50;99.90;;;;;;5094849;28;20170;-59
2024/01/24 10:09:17;;;;;;;28.27;5.72;;;11.60;99.90;;;;;;5094853;28;20205;-59
2024/01/24 10:11:43;;;;;;;20.83;5.15;;;11.60;99.90;;;;;;5094805;28;20200;-60
2024/01/24 10:14:08;;;;;;;23.90;4.72;;;11.60;99.90;;;;;;5094653;28;20169;-59
2024/01/24 10:16:35;;;;;;;19.73;5.00;;;11.60;99.90;;;;;;5095279;28;20181;-55
2024/01/24 10:19:00;;;;;;;12.65;4.43;;;11.60;99.90;;;;;;5094742;28;20249;-55
2024/01/24 10:21:26;;;;;;;27.45;5.63;;;11.70;99.90;;;;;;5094546;28;20200;-59
2024/01/24 10:23:55;;;;;;;27.65;5.55;;;11.80;99.90;;;;;;5094422;28;20200;-59
2024/01/24 10:26:20;;;;;;;28.55;5.50;;;11.70;99.90;;;;;;5094512;28;20168;-58
2024/01/24 10:28:47;;;;;;;22.15;5.18;;;11.70;99.90;;;;;;5094297;28;20181;-58
2024/01/24 10:31:12;;;;;;;29.15;5.47;;;11.70;99.90;;;;;;5094583;28;20169;-59
2024/01/24 10:33:38;;;;;;;15.55;4.75;;;11.80;99.90;;;;;;5094497;28;20538;-58
2024/01/24 10:36:08;;;;;;;23.92;6.43;;;11.80;99.90;;;;;;5095014;28;20197;-52
2024/01/24 10:38:38;;;;;;;18.52;5.55;;;11.70;99.90;;;;;;5094980;28;20172;-60
2024/01/24 10:41:06;;;;;;;24.83;5.85;;;9.80;99.90;;;;;;5094620;28;20582;-60
2024/01/24 10:43:34;;;;;;;21.85;5.22;;;11.60;99.90;;;;;;5094617;28;20158;-60
2024/01/24 10:46:00;;;;;;;28.95;5.60;;;11.60;99.90;;;;;;5092936;28;20235;-56
2024/01/24 10:48:26;;;;;;;22.20;6.03;;;11.60;99.90;;;;;;5093954;28;20165;-59
2024/01/24 10:50:53;;;;;;;19.58;4.63;;;11.70;99.90;;;;;;5094007;28;20210;-60
2024/01/24 10:53:20;;;;;;;16.95;4.72;;;11.80;99.90;;;;;;5093916;28;20171;-60
2024/01/24 10:55:48;;;;;;;22.33;5.45;;;11.90;99.90;;;;;;5094179;28;20179;-49
2024/01/24 10:58:14;;;;;;;28.90;6.75;;;11.90;99.90;;;;;;5093882;28;20659;-51
2024/01/24 11:00:41;;;;;;;34.60;6.30;;;11.90;99.90;;;;;;5093831;28;20165;-52
2024/01/24 11:03:07;;;;;;;22.30;4.85;;;12.00;99.90;;;;;;5094107;28;20222;-51
2024/01/24 11:05:40;;;;;;;23.17;4.78;;;12.00;99.90;;;;;;5094107;28;20205;-50
2024/01/24 11:08:33;;;;;;;26.23;4.88;;;11.90;99.90;;;;;;5094138;28;20164;-52
2024/01/24 11:11:04;;;;;;;26.15;5.22;;;11.90;99.90;;;;;;5093573;28;20161;-51
2024/01/24 11:13:33;;;;;;;32.92;5.10;;;11.90;99.90;;;;;;5093428;28;20162;-59
2024/01/24 11:15:59;;;;;;;22.15;5.88;;;12.00;99.90;;;;;;5093512;28;20608;-57
2024/01/24 11:18:31;;;;;;;22.70;5.10;;;11.90;99.90;;;;;;5092450;28;20286;-57
2024/01/24 11:20:58;;;;;;;23.48;5.82;;;11.90;99.90;;;;;;5093595;28;20215;-57
2024/01/24 11:23:46;;;;;;;19.88;4.03;;;11.90;99.90;;;;;;5093312;28;20212;-53
2024/01/24 11:26:32;;;;;;;23.85;4.82;;;11.80;99.90;;;;;;5093540;28;20230;-60
2024/01/24 11:29:05;;;;;;;26.98;5.70;;;11.80;99.90;;;;;;5089183;28;20182;-57
2024/01/24 11:31:38;;;;;;;17.52;4.55;;;11.80;99.90;;;;;;5093143;28;20187;-58
2024/01/24 11:34:11;;;;;;;23.40;4.47;;;11.80;99.90;;;;;;5092801;28;20625;-53
2024/01/24 11:37:04;;;;;;;18.95;5.13;;;11.80;99.90;;;;;;5092893;28;20256;-50
2024/01/24 11:39:30;;;;;;;23.15;4.70;;;12.00;99.90;;;;;;5091704;28;20212;-52
2024/01/24 11:42:21;;;;;;;21.77;3.97;;;12.10;99.90;;;;;;5092682;28;20302;-52
2024/01/24 11:44:47;;;;;;;24.88;5.43;;;12.20;99.90;;;;;;5092594;28;20665;-52
2024/01/24 11:47:13;;;;;;;22.73;5.05;;;12.10;99.90;;;;;;5092626;28;20169;-54
2024/01/24 11:49:38;;;;;;;22.13;6.30;;;12.10;99.90;;;;;;5092316;28;20624;-52
2024/01/24 11:52:05;;;;;;;21.05;5.03;;;12.10;99.90;;;;;;5093000;28;20161;-51
2024/01/24 11:54:30;;;;;;;19.77;5.20;;;12.10;99.90;;;;;;5092731;28;20560;-51
2024/01/24 11:56:58;;;;;;;30.13;5.43;;;12.00;99.90;;;;;;5091915;28;20221;-50
2024/01/24 11:59:23;;;;;;;22.02;4.47;;;12.10;99.90;;;;;;5092314;28;20158;-50
2024/01/24 12:01:49;;;;;;;21.92;5.63;;;12.10;99.90;;;;;;5092333;28;20164;-50
2024/01/24 12:04:15;;;;;;;24.77;6.20;;;12.10;99.90;;;;;;5092292;28;20227;-50
2024/01/24 12:06:41;;;;;;;33.97;5.65;;;12.00;99.90;;;;;;5092138;28;20191;-48
2024/01/24 12:09:09;;;;;;;28.25;6.90;;;12.10;99.90;;;;;;5092446;28;20177;-53
2024/01/24 12:11:34;;;;;;;25.77;5.15;;;12.10;99.90;;;;;;5092721;28;20214;-55
2024/01/24 12:14:01;;;;;;;32.33;6.05;;;12.20;99.90;;;;;;5092040;28;20162;-54
2024/01/24 12:16:28;;;;;;;34.15;6.75;;;12.30;99.90;;;;;;5091768;28;20170;-53
2024/01/24 12:18:54;;;;;;;24.98;5.43;;;12.40;99.90;;;;;;5092188;28;20629;-52
2024/01/24 12:21:21;;;;;;;17.77;4.53;;;12.30;99.90;;;;;;5091950;28;20161;-53
2024/01/24 12:23:47;;;;;;;20.45;5.07;;;12.20;99.90;;;;;;5092289;28;20216;-55
2024/01/24 12:26:14;;;;;;;23.85;4.72;;;12.10;99.90;;;;;;5090663;28;20165;-60
2024/01/24 12:28:40;;;;;;;21.58;5.13;;;12.20;99.90;;;;;;5091837;28;20169;-60
2024/01/24 12:31:05;;;;;;;27.02;4.90;;;12.10;99.90;;;;;;5092011;28;20175;-59
2024/01/24 12:33:32;;;;;;;25.23;5.18;;;12.10;99.90;;;;;;5091679;28;20200;-57
2024/01/24 12:36:04;;;;;;;27.77;6.32;;;12.10;99.90;;;;;;5091694;28;20169;-57
2024/01/24 12:38:30;;;;;;;26.38;5.75;;;12.00;99.90;;;;;;5091860;28;20224;-60